الصفحة الرئيسية
METAR-TAF:

METAR-TAF

مطار :

مطار شيان شيانيانغ الدولي

شيان, جمهورية الصين الشعبية

دائرة عرض: 34-26N, خط طول: 108-45E, ارتفاع: 479 متر

مراقبة الطقس الحالي

تاريخ ووقت الإصدار 50 دقيقة قبل الساعة 03:00UTC
ريح 8 عقدة من الشمال الشرقي, الاتجاه يتراوح بين الشمال و الشرق
درجة الحرارة 16°درجة مئوية
الرطوبة 45%
ضغط 1024 hPa
الرؤية 10 كم أو أكثر
الغيوم لا تقل 1500 م ولا وجود لمزنة ركامية السحاب الأسود

METAR: ZLXY 230300Z 05004MPS 010V100 CAVOK 16/04 Q1024 NOSIG

زمن: 11:50 (03:50 UTC)

توقعات

تاريخ ووقت الإصدار 8ساعات و 43 دقيقة قبل الساعة 19:07UTC
التوقعات صالحة من23 الساعة 00 UTC إلى 23 الساعة 24 UTC
ريح 6 عقدة من الشرق/الشمال الشرقي
الرؤية: 3000 متر
العجاج

TAF: ZLXY 221907Z 2300/2324 06003MPS 3000 HZ NSC TX21/2307Z TN06/2323Z

أرصاد الطقس والتوقعات من أكثر من 4000 مطار (تقارير الطقس للمطار METAR والتنبؤ بالطقس بالمطارTAF).

المحطات المتاحة هي النقط الصفراء والحمراء على الخريطة.

حرك المؤشر فوق النقطة لمعرفة اسم المحطة.

ثم انقر لمعرفة أرصاد وتوقعات الطقس.

لتغيير الخارطة: اضغط على الأزرار الخضراء مع رمز الصليب الأسود للتكبير. على الزر الأخضر مع شرطة للتصغير، أو على الأسهم الخضراء للخرائط المجاورة.


METAR-TAF: